Time;durP1;ratioP1;P1;durP2;ratioP2;P2;SDS_P1;SDS_P2;PMS_P1;PMS_P2;Temp;Humidity;BMP_temperature;BMP_pressure;BME280_temperature;BME280_humidity;BME280_pressure;Samples;Min_cycle;Max_cycle;Signal;HPM_P1;HPM_P2
2021/04/13 00:00:18;;;;;;;16.50;4.07;;;;;;;;;;4937238;29;20217;-52
2021/04/13 00:02:49;;;;;;;22.90;5.30;;;;;;;;;;4939226;29;20079;-52
2021/04/13 00:05:33;;;;;;;18.38;6.28;;;;;;;;;;4940788;29;20027;-54
2021/04/13 00:08:02;;;;;;;16.65;5.50;;;;;;;;;;4944929;29;20467;-52
2021/04/13 00:10:32;;;;;;;23.27;6.18;;;;;;;;;;4943324;29;20020;-52
2021/04/13 00:12:57;;;;;;;17.92;5.10;;;;;;;;;;4925374;29;20036;-52
2021/04/13 00:15:25;;;;;;;16.23;4.13;;;;;;;;;;4935331;29;20436;-52
2021/04/13 00:17:51;;;;;;;12.95;3.58;;;;;;;;;;4945540;29;20060;-56
2021/04/13 00:20:31;;;;;;;13.93;3.25;;;;;;;;;;4923312;29;20059;-53
2021/04/13 00:22:57;;;;;;;10.18;2.50;;;;;;;;;;4922151;29;20032;-54
2021/04/13 00:25:48;;;;;;;6.87;2.40;;;;;;;;;;4920069;29;20119;-57
2021/04/13 00:28:18;;;;;;;12.88;2.60;;;;;;;;;;4917438;29;20279;-52
2021/04/13 00:30:48;;;;;;;6.95;2.42;;;;;;;;;;4918869;29;20046;-52
2021/04/13 00:33:15;;;;;;;4.43;2.28;;;;;;;;;;4918419;29;20048;-52
2021/04/13 00:35:47;;;;;;;9.07;2.80;;;;;;;;;;4917825;29;20028;-53
2021/04/13 00:38:16;;;;;;;7.30;2.25;;;;;;;;;;4916911;29;20032;-56
2021/04/13 00:40:43;;;;;;;6.32;2.97;;;;;;;;;;4917594;29;20047;-55
2021/04/13 00:43:10;;;;;;;7.07;2.58;;;;;;;;;;4917983;29;20036;-56
2021/04/13 00:45:37;;;;;;;6.22;2.92;;;;;;;;;;4916753;29;20449;-55
2021/04/13 00:48:04;;;;;;;9.30;2.88;;;;;;;;;;4917413;29;20036;-56
2021/04/13 00:50:29;;;;;;;6.10;2.83;;;;;;;;;;4917168;29;20032;-54
2021/04/13 00:52:56;;;;;;;15.40;4.30;;;;;;;;;;4900582;29;20036;-57
2021/04/13 00:55:25;;;;;;;15.55;5.30;;;;;;;;;;4916968;29;20048;-55
2021/04/13 00:58:11;;;;;;;14.13;4.85;;;;;;;;;;4917441;29;20047;-53
2021/04/13 01:00:37;;;;;;;9.93;4.43;;;;;;;;;;4916551;29;20048;-55
2021/04/13 01:03:03;;;;;;;;;;;;;;;;;;4917431;29;20120;-56
2021/04/13 01:05:45;;;;;;;20.53;5.03;;;;;;;;;;4916107;29;20009;-52
2021/04/13 01:08:36;;;;;;;10.02;3.97;;;;;;;;;;4917259;29;20120;-54
2021/04/13 01:11:06;;;;;;;15.45;5.00;;;;;;;;;;4914836;29;20046;-54
2021/04/13 01:13:48;;;;;;;13.38;3.80;;;;;;;;;;4916511;29;20028;-55
2021/04/13 01:16:15;;;;;;;11.40;4.13;;;;;;;;;;4916910;29;20468;-54
2021/04/13 01:18:41;;;;;;;12.10;4.35;;;;;;;;;;4899513;29;20064;-55
2021/04/13 01:21:07;;;;;;;;;;;;;;;;;;4915905;29;20036;-55
2021/04/13 01:23:39;;;;;;;15.87;4.20;;;;;;;;;;4916587;29;19926;-55
2021/04/13 01:26:07;;;;;;;9.73;3.70;;;;;;;;;;4917310;29;20036;-59
2021/04/13 01:28:35;;;;;;;10.82;4.30;;;;;;;;;;4916715;29;20068;-57
2021/04/13 01:31:10;;;;;;;15.88;3.30;;;;;;;;;;4915915;29;20032;-56
2021/04/13 01:33:46;;;;;;;9.95;2.72;;;;;;;;;;4916605;29;20523;-56
2021/04/13 01:36:31;;;;;;;10.10;2.60;;;;;;;;;;4931196;29;20063;-56
2021/04/13 01:39:12;;;;;;;8.20;3.13;;;;;;;;;;4916700;29;20039;-58
2021/04/13 01:41:57;;;;;;;9.05;2.80;;;;;;;;;;4899308;29;20044;-56
2021/04/13 01:44:27;;;;;;;8.48;2.22;;;;;;;;;;4916294;29;20044;-54
2021/04/13 01:46:53;;;;;;;8.45;2.80;;;;;;;;;;4916299;29;20090;-55
2021/04/13 01:49:18;;;;;;;13.75;4.10;;;;;;;;;;4916445;29;20503;-54
2021/04/13 01:51:44;;;;;;;13.50;4.17;;;;;;;;;;4916345;29;20083;-55
2021/04/13 01:54:13;;;;;;;22.80;5.33;;;;;;;;;;4916529;29;20051;-54
2021/04/13 01:56:50;;;;;;;14.63;4.32;;;;;;;;;;4915044;29;20043;-56
2021/04/13 01:59:21;;;;;;;7.68;3.33;;;;;;;;;;4916035;29;20028;-54
2021/04/13 02:01:50;;;;;;;13.07;3.92;;;;;;;;;;4899014;29;20071;-56
2021/04/13 02:04:19;;;;;;;9.45;3.33;;;;;;;;;;4930754;29;20130;-51
2021/04/13 02:06:49;;;;;;;13.65;4.50;;;;;;;;;;4915845;29;20111;-54
2021/04/13 02:09:49;;;;;;;12.30;3.10;;;;;;;;;;4914854;29;20535;-56
2021/04/13 02:12:22;;;;;;;14.70;3.08;;;;;;;;;;4915945;29;20052;-51
2021/04/13 02:14:53;;;;;;;10.13;3.15;;;;;;;;;;4915956;29;20111;-54
2021/04/13 02:17:24;;;;;;;10.38;3.15;;;;;;;;;;4916028;29;20087;-54
2021/04/13 02:19:50;;;;;;;10.23;4.40;;;;;;;;;;4915550;29;20393;-54
2021/04/13 02:22:17;;;;;;;11.57;4.38;;;;;;;;;;4915712;29;20032;-54
2021/04/13 02:24:43;;;;;;;11.95;3.65;;;;;;;;;;4915824;29;20080;-51
2021/04/13 02:27:12;;;;;;;13.23;4.88;;;;;;;;;;4916048;29;20064;-54
2021/04/13 02:29:39;;;;;;;13.13;5.15;;;;;;;;;;4915571;29;20040;-55
2021/04/13 02:32:25;;;;;;;15.60;4.78;;;;;;;;;;4915698;29;20111;-54
2021/04/13 02:34:53;;;;;;;14.13;3.90;;;;;;;;;;4904135;29;20047;-56
2021/04/13 02:37:21;;;;;;;16.85;4.90;;;;;;;;;;4930281;29;20039;-55
2021/04/13 02:39:47;;;;;;;11.35;3.90;;;;;;;;;;4915389;29;20040;-52
2021/04/13 02:42:17;;;;;;;13.63;3.67;;;;;;;;;;4914429;29;20060;-56
2021/04/13 02:44:52;;;;;;;12.15;4.10;;;;;;;;;;4915342;29;20095;-53
2021/04/13 02:47:18;;;;;;;10.00;3.80;;;;;;;;;;4898630;29;20057;-56
2021/04/13 02:49:43;;;;;;;16.67;3.73;;;;;;;;;;4915536;29;20028;-55
2021/04/13 02:52:16;;;;;;;13.65;3.83;;;;;;;;;;4915632;29;20036;-55
2021/04/13 02:54:46;;;;;;;18.10;3.83;;;;;;;;;;4913980;29;20058;-57
2021/04/13 02:57:23;;;;;;;12.20;3.63;;;;;;;;;;4915683;29;20039;-56
2021/04/13 02:59:49;;;;;;;13.68;3.90;;;;;;;;;;4915065;29;20436;-56
2021/04/13 03:02:17;;;;;;;9.57;4.00;;;;;;;;;;4915824;29;20401;-55
2021/04/13 03:04:44;;;;;;;13.18;2.92;;;;;;;;;;4915339;29;20126;-54
2021/04/13 03:07:09;;;;;;;;;;;;;;;;;;4915088;29;20091;-55
2021/04/13 03:09:36;;;;;;;11.80;3.27;;;;;;;;;;4919090;29;19907;-55
2021/04/13 03:12:03;;;;;;;12.23;3.50;;;;;;;;;;4918825;29;20147;-56
2021/04/13 03:14:54;;;;;;;13.73;3.88;;;;;;;;;;4918746;29;20039;-52
2021/04/13 03:17:21;;;;;;;7.25;3.35;;;;;;;;;;4914568;29;20055;-54
2021/04/13 03:19:49;;;;;;;7.85;3.97;;;;;;;;;;4918658;29;20032;-54
2021/04/13 03:22:15;;;;;;;12.38;4.70;;;;;;;;;;4933444;29;20123;-56
2021/04/13 03:24:41;;;;;;;;;;;;;;;;;;4919159;29;20036;-52
2021/04/13 03:27:14;;;;;;;9.33;3.73;;;;;;;;;;4917415;29;20256;-53
2021/04/13 03:29:47;;;;;;;8.45;3.75;;;;;;;;;;4918672;29;20032;-55
2021/04/13 03:32:14;;;;;;;8.38;3.92;;;;;;;;;;4918757;29;20060;-57
2021/04/13 03:34:40;;;;;;;7.97;4.28;;;;;;;;;;4901716;29;20032;-55
2021/04/13 03:37:06;;;;;;;12.60;3.53;;;;;;;;;;4918306;29;20430;-56
2021/04/13 03:39:32;;;;;;;13.02;4.32;;;;;;;;;;4918636;29;20226;-59
2021/04/13 03:41:58;;;;;;;;;;;;;;;;;;4918393;29;20087;-54
2021/04/13 03:44:24;;;;;;;9.63;4.03;;;;;;;;;;4918558;29;19911;-55
2021/04/13 03:46:49;;;;;;;12.90;4.50;;;;;;;;;;4918151;29;20036;-56
2021/04/13 03:49:17;;;;;;;14.82;4.47;;;;;;;;;;4918052;29;20038;-57
2021/04/13 03:51:47;;;;;;;8.43;3.67;;;;;;;;;;4918097;29;20032;-54
2021/04/13 03:54:17;;;;;;;11.02;4.10;;;;;;;;;;4917137;29;20441;-55
2021/04/13 03:56:43;;;;;;;10.52;3.70;;;;;;;;;;4918410;29;20059;-53
2021/04/13 03:59:18;;;;;;;12.83;4.33;;;;;;;;;;4932552;29;20036;-57
2021/04/13 04:01:46;;;;;;;16.60;5.32;;;;;;;;;;4917030;29;20044;-54
2021/04/13 04:04:19;;;;;;;13.45;4.65;;;;;;;;;;4917784;29;20032;-55
2021/04/13 04:06:56;;;;;;;12.75;4.72;;;;;;;;;;4918238;29;20119;-54
2021/04/13 04:09:27;;;;;;;19.95;5.32;;;;;;;;;;4918208;29;20051;-53
2021/04/13 04:11:55;;;;;;;17.08;5.95;;;;;;;;;;4916492;29;20043;-54
2021/04/13 04:14:23;;;;;;;20.52;5.90;;;;;;;;;;4916623;29;20682;-56
2021/04/13 04:16:49;;;;;;;20.67;7.05;;;;;;;;;;4917797;29;20079;-53
2021/04/13 04:19:24;;;;;;;20.40;6.47;;;;;;;;;;4917204;29;20077;-53
2021/04/13 04:22:10;;;;;;;16.52;5.18;;;;;;;;;;4916668;29;20044;-55
2021/04/13 04:24:40;;;;;;;18.17;5.68;;;;;;;;;;4916686;29;20032;-55
2021/04/13 04:27:26;;;;;;;13.00;4.60;;;;;;;;;;4917352;29;20032;-54
2021/04/13 04:30:05;;;;;;;14.43;4.47;;;;;;;;;;4915907;29;20059;-56
2021/04/13 04:32:30;;;;;;;8.48;4.50;;;;;;;;;;4917837;29;20025;-53
2021/04/13 04:34:57;;;;;;;12.63;4.57;;;;;;;;;;4916371;29;20031;-55
2021/04/13 04:37:24;;;;;;;9.75;4.43;;;;;;;;;;4916627;29;20039;-53
2021/04/13 04:40:08;;;;;;;14.57;4.68;;;;;;;;;;4931999;29;20036;-55
2021/04/13 04:42:35;;;;;;;9.25;4.53;;;;;;;;;;4900502;29;20472;-56
2021/04/13 04:45:10;;;;;;;12.35;4.30;;;;;;;;;;4917255;29;20034;-54
2021/04/13 04:47:38;;;;;;;7.82;4.43;;;;;;;;;;4917314;29;20024;-54
2021/04/13 04:50:05;;;;;;;10.13;4.32;;;;;;;;;;4917207;29;20047;-55
2021/04/13 04:52:30;;;;;;;11.32;5.22;;;;;;;;;;4917265;29;20028;-57
2021/04/13 04:54:58;;;;;;;15.67;5.53;;;;;;;;;;4916951;29;20460;-53
2021/04/13 04:57:23;;;;;;;12.90;6.00;;;;;;;;;;4915851;29;20067;-53
2021/04/13 04:59:49;;;;;;;15.43;5.20;;;;;;;;;;4915863;29;20040;-55
2021/04/13 05:02:14;;;;;;;9.07;4.00;;;;;;;;;;4917046;29;20075;-54
2021/04/13 05:04:41;;;;;;;13.17;4.97;;;;;;;;;;4917154;29;20388;-53
2021/04/13 05:07:06;;;;;;;10.90;5.20;;;;;;;;;;4916768;29;20540;-54
2021/04/13 05:09:31;;;;;;;6.90;3.03;;;;;;;;;;4916991;29;20024;-55
2021/04/13 05:11:57;;;;;;;23.63;4.90;;;;;;;;;;4916881;29;20076;-54
2021/04/13 05:14:22;;;;;;;17.23;4.77;;;;;;;;;;4915855;29;20551;-57
2021/04/13 05:16:49;;;;;;;11.30;4.60;;;;;;;;;;4915724;29;20481;-54
2021/04/13 05:19:15;;;;;;;14.63;4.03;;;;;;;;;;4916660;29;20132;-52
2021/04/13 05:21:40;;;;;;;9.23;4.60;;;;;;;;;;4917302;29;20076;-55
2021/04/13 05:24:06;;;;;;;9.63;5.20;;;;;;;;;;4917056;29;20536;-58
2021/04/13 05:26:32;;;;;;;8.57;5.00;;;;;;;;;;4917517;29;20043;-56
2021/04/13 05:28:59;;;;;;;14.60;4.03;;;;;;;;;;4917346;29;20040;-55
2021/04/13 05:31:25;;;;;;;9.13;4.15;;;;;;;;;;4941779;29;20038;-56
2021/04/13 05:33:50;;;;;;;12.70;4.27;;;;;;;;;;4935820;29;20110;-56
2021/04/13 05:36:15;;;;;;;15.70;6.17;;;;;;;;;;4934728;29;20099;-55
2021/04/13 05:38:43;;;;;;;8.60;3.83;;;;;;;;;;4935582;29;20063;-54
2021/04/13 05:41:10;;;;;;;17.77;4.18;;;;;;;;;;4966108;28;20441;-56
2021/04/13 05:43:36;;;;;;;17.17;4.20;;;;;;;;;;4936839;29;20048;-54
2021/04/13 05:46:02;;;;;;;10.20;3.63;;;;;;;;;;4937116;29;20115;-55
2021/04/13 05:48:28;;;;;;;11.70;4.00;;;;;;;;;;4920500;29;20067;-54
2021/04/13 05:50:54;;;;;;;11.43;3.53;;;;;;;;;;4935391;29;20038;-51
2021/04/13 05:53:20;;;;;;;12.52;3.67;;;;;;;;;;4934890;29;20039;-54
2021/04/13 05:55:46;;;;;;;14.85;4.13;;;;;;;;;;4935376;29;20052;-56
2021/04/13 05:58:14;;;;;;;15.07;3.58;;;;;;;;;;4934505;29;20047;-53
2021/04/13 06:00:41;;;;;;;11.10;4.15;;;;;;;;;;4936777;29;20078;-55
2021/04/13 06:03:07;;;;;;;10.60;3.72;;;;;;;;;;4935128;29;20063;-52
2021/04/13 06:05:32;;;;;;;7.90;3.60;;;;;;;;;;4933827;29;20130;-54
2021/04/13 06:08:00;;;;;;;5.67;3.00;;;;;;;;;;4934143;29;20568;-52
2021/04/13 06:10:26;;;;;;;13.75;3.22;;;;;;;;;;4934824;29;20031;-55
2021/04/13 06:12:52;;;;;;;11.20;2.97;;;;;;;;;;4935274;29;20436;-55
2021/04/13 06:15:19;;;;;;;9.00;2.88;;;;;;;;;;4934596;29;20109;-55
2021/04/13 06:17:48;;;;;;;9.13;2.97;;;;;;;;;;4917838;29;20384;-55
2021/04/13 06:20:14;;;;;;;7.78;2.67;;;;;;;;;;4933173;29;20091;-52
2021/04/13 06:22:39;;;;;;;7.28;3.38;;;;;;;;;;4934642;29;20050;-52
2021/04/13 06:25:05;;;;;;;12.47;2.90;;;;;;;;;;4934525;29;20044;-56
2021/04/13 06:27:30;;;;;;;11.07;2.70;;;;;;;;;;4934861;29;20032;-55
2021/04/13 06:29:56;;;;;;;9.50;2.80;;;;;;;;;;4934759;29;20380;-56
2021/04/13 06:32:24;;;;;;;8.43;2.73;;;;;;;;;;4932994;29;20510;-54
2021/04/13 06:34:49;;;;;;;8.65;2.00;;;;;;;;;;4933359;29;20036;-55
2021/04/13 06:37:15;;;;;;;12.67;2.73;;;;;;;;;;4934309;29;20092;-54
2021/04/13 06:39:40;;;;;;;9.37;3.47;;;;;;;;;;4934708;29;20039;-54
2021/04/13 06:42:06;;;;;;;14.50;3.17;;;;;;;;;;4934891;29;20040;-55
2021/04/13 06:44:31;;;;;;;11.90;2.60;;;;;;;;;;4938286;29;20019;-55
2021/04/13 06:47:09;;;;;;;11.87;2.83;;;;;;;;;;4938536;29;20063;-57
2021/04/13 06:49:49;;;;;;;10.10;2.45;;;;;;;;;;4937852;29;20047;-54
2021/04/13 06:52:30;;;;;;;7.65;2.60;;;;;;;;;;4936667;29;20087;-53
2021/04/13 06:55:14;;;;;;;10.82;2.38;;;;;;;;;;4938313;29;20032;-56
2021/04/13 06:57:45;;;;;;;7.35;2.00;;;;;;;;;;4938588;29;20130;-56
2021/04/13 07:00:22;;;;;;;7.65;2.22;;;;;;;;;;4938070;29;20487;-56
2021/04/13 07:02:51;;;;;;;11.40;2.03;;;;;;;;;;4937862;29;20047;-55
2021/04/13 07:05:32;;;;;;;12.07;3.20;;;;;;;;;;4936772;29;20032;-54
2021/04/13 07:08:01;;;;;;;10.43;2.00;;;;;;;;;;4937050;29;20036;-54
2021/04/13 07:10:43;;;;;;;9.88;2.13;;;;;;;;;;4937890;29;20046;-54
2021/04/13 07:13:09;;;;;;;12.77;2.15;;;;;;;;;;4938006;29;20078;-55
2021/04/13 07:15:45;;;;;;;9.07;2.20;;;;;;;;;;4936686;29;20032;-54
2021/04/13 07:18:17;;;;;;;8.63;2.60;;;;;;;;;;4937556;29;20039;-55
2021/04/13 07:20:53;;;;;;;4.90;1.23;;;;;;;;;;4921030;29;20106;-55
2021/04/13 07:23:27;;;;;;;11.80;1.85;;;;;;;;;;4937783;29;20031;-55
2021/04/13 07:25:59;;;;;;;7.35;1.70;;;;;;;;;;4937907;29;20028;-54
2021/04/13 07:28:32;;;;;;;9.57;1.77;;;;;;;;;;4937520;29;20115;-55
2021/04/13 07:31:00;;;;;;;6.32;1.40;;;;;;;;;;4938013;29;20032;-56
2021/04/13 07:33:27;;;;;;;7.75;1.58;;;;;;;;;;4937676;29;20059;-53
2021/04/13 07:35:55;;;;;;;8.93;1.38;;;;;;;;;;4937804;29;20031;-55
2021/04/13 07:38:25;;;;;;;5.95;1.23;;;;;;;;;;4936098;29;20400;-55
2021/04/13 07:40:53;;;;;;;8.82;1.60;;;;;;;;;;4937419;29;20083;-55
2021/04/13 07:43:21;;;;;;;7.18;1.90;;;;;;;;;;4937167;29;20484;-56
2021/04/13 07:45:52;;;;;;;8.85;1.50;;;;;;;;;;4936474;29;20122;-55
2021/04/13 07:48:17;;;;;;;8.43;2.40;;;;;;;;;;4935870;29;20031;-51
2021/04/13 07:50:52;;;;;;;3.15;1.38;;;;;;;;;;4936138;29;20159;-56
2021/04/13 07:53:36;;;;;;;5.38;1.30;;;;;;;;;;4935545;29;20066;-56
2021/04/13 07:56:06;;;;;;;7.45;1.13;;;;;;;;;;4927404;29;20083;-55
2021/04/13 07:58:31;;;;;;;4.88;1.35;;;;;;;;;;4917844;29;20063;-55
2021/04/13 08:00:57;;;;;;;4.93;1.30;;;;;;;;;;4933931;29;20035;-56
2021/04/13 08:03:22;;;;;;;10.30;1.37;;;;;;;;;;4935674;29;20428;-56
2021/04/13 08:05:49;;;;;;;4.27;1.00;;;;;;;;;;4937138;29;20044;-54
2021/04/13 08:08:34;;;;;;;4.57;0.83;;;;;;;;;;4937206;29;20036;-54
2021/04/13 08:11:19;;;;;;;7.60;1.00;;;;;;;;;;4937340;29;20058;-54
2021/04/13 08:13:46;;;;;;;8.32;1.30;;;;;;;;;;4937243;29;20405;-57
2021/04/13 08:16:30;;;;;;;12.15;1.30;;;;;;;;;;4936432;29;20088;-55
2021/04/13 08:19:15;;;;;;;5.28;1.25;;;;;;;;;;4935262;29;20031;-55
2021/04/13 08:21:40;;;;;;;12.02;1.90;;;;;;;;;;4967430;28;20046;-57
2021/04/13 08:24:15;;;;;;;14.80;2.40;;;;;;;;;;4960265;28;20111;-56
2021/04/13 08:26:42;;;;;;;12.20;2.00;;;;;;;;;;4934290;29;20035;-56
2021/04/13 08:29:16;;;;;;;7.18;1.30;;;;;;;;;;4936215;29;20520;-54
2021/04/13 08:34:45;;;;;;;4.38;1.10;;;;;;;;;;4936682;29;20403;-54
2021/04/13 08:37:20;;;;;;;7.72;1.60;;;;;;;;;;4916457;29;20031;-55
2021/04/13 08:39:58;;;;;;;7.57;1.60;;;;;;;;;;4917529;29;20187;-56
2021/04/13 08:42:35;;;;;;;9.50;2.00;;;;;;;;;;4917363;29;20035;-55
2021/04/13 08:45:01;;;;;;;7.30;1.40;;;;;;;;;;4916320;29;20396;-55
2021/04/13 08:47:29;;;;;;;7.07;1.90;;;;;;;;;;4917768;29;20062;-55
2021/04/13 08:49:56;;;;;;;6.45;1.92;;;;;;;;;;4917618;29;20127;-54
2021/04/13 08:52:30;;;;;;;9.10;1.30;;;;;;;;;;4915766;29;20580;-57
2021/04/13 08:55:02;;;;;;;10.77;2.22;;;;;;;;;;4917618;29;20059;-55
2021/04/13 08:57:32;;;;;;;8.20;1.63;;;;;;;;;;4932792;29;20568;-55
2021/04/13 08:59:59;;;;;;;5.07;1.67;;;;;;;;;;4935821;29;20055;-55
2021/04/13 09:02:24;;;;;;;;;;;;;;;;;;4936962;29;20067;-56
2021/04/13 09:04:59;;;;;;;6.87;1.43;;;;;;;;;;4936434;29;19965;-56
2021/04/13 09:07:27;;;;;;;6.43;1.20;;;;;;;;;;4936244;29;20028;-57
2021/04/13 09:10:12;;;;;;;6.30;1.40;;;;;;;;;;4935211;29;20377;-54
2021/04/13 09:12:40;;;;;;;6.43;1.20;;;;;;;;;;4919085;29;20035;-56
2021/04/13 09:15:11;;;;;;;5.93;1.00;;;;;;;;;;4934251;29;20274;-57
2021/04/13 09:17:42;;;;;;;5.00;1.27;;;;;;;;;;4935217;29;20262;-57
2021/04/13 09:20:10;;;;;;;4.07;1.00;;;;;;;;;;4934717;29;20282;-56
2021/04/13 09:22:45;;;;;;;4.23;1.20;;;;;;;;;;4935618;29;20422;-54
2021/04/13 09:25:10;;;;;;;5.90;1.67;;;;;;;;;;4934183;29;20274;-54
2021/04/13 09:27:41;;;;;;;8.37;1.30;;;;;;;;;;4935777;29;20345;-55
2021/04/13 09:30:29;;;;;;;5.33;2.23;;;;;;;;;;4935632;29;20043;-55
2021/04/13 09:33:13;;;;;;;12.77;2.90;;;;;;;;;;4933075;29;20746;-56
2021/04/13 09:35:44;;;;;;;8.23;2.77;;;;;;;;;;4931393;29;20270;-55
2021/04/13 09:38:29;;;;;;;4.83;2.03;;;;;;;;;;4918360;29;20360;-57
2021/04/13 09:41:17;;;;;;;6.47;1.60;;;;;;;;;;4934544;29;20357;-56
2021/04/13 09:44:03;;;;;;;4.00;1.10;;;;;;;;;;4932527;29;20048;-57
2021/04/13 09:46:34;;;;;;;6.77;1.93;;;;;;;;;;4934568;29;20543;-55
2021/04/13 09:49:13;;;;;;;5.07;1.43;;;;;;;;;;4935379;28;20040;-56
2021/04/13 09:51:58;;;;;;;6.60;2.03;;;;;;;;;;4934919;28;20377;-55
2021/04/13 09:54:40;;;;;;;3.57;1.37;;;;;;;;;;4934829;29;20028;-54
2021/04/13 09:57:17;;;;;;;6.80;1.43;;;;;;;;;;4955675;28;20492;-57
2021/04/13 09:59:48;;;;;;;3.22;0.80;;;;;;;;;;4934277;29;20042;-55
2021/04/13 10:02:19;;;;;;;4.47;1.33;;;;;;;;;;4935298;29;20034;-56
2021/04/13 10:04:53;;;;;;;6.17;1.10;;;;;;;;;;4934689;28;20038;-55
2021/04/13 10:07:22;;;;;;;3.37;1.00;;;;;;;;;;4934171;29;20027;-57
2021/04/13 10:09:48;;;;;;;3.63;0.90;;;;;;;;;;4933588;29;20050;-56
2021/04/13 10:12:21;;;;;;;3.47;1.40;;;;;;;;;;4933922;29;20420;-55
2021/04/13 10:14:47;;;;;;;8.23;2.30;;;;;;;;;;4934767;29;20070;-55
2021/04/13 10:17:24;;;;;;;5.13;1.47;;;;;;;;;;4934288;29;20055;-56
2021/04/13 10:20:09;;;;;;;5.63;1.17;;;;;;;;;;4934911;29;20039;-56
2021/04/13 10:22:49;;;;;;;2.93;1.10;;;;;;;;;;4934418;29;20046;-55
2021/04/13 10:25:37;;;;;;;4.70;1.30;;;;;;;;;;4934780;29;20038;-55
2021/04/13 10:28:05;;;;;;;7.20;1.30;;;;;;;;;;4926913;29;20043;-56
2021/04/13 10:30:34;;;;;;;4.30;1.47;;;;;;;;;;4933304;29;20035;-58
2021/04/13 10:33:08;;;;;;;7.20;1.47;;;;;;;;;;4965638;28;20039;-57
2021/04/13 10:35:43;;;;;;;5.10;1.00;;;;;;;;;;4934632;29;20047;-57
2021/04/13 10:38:27;;;;;;;6.80;2.17;;;;;;;;;;4934746;28;20126;-57
2021/04/13 10:41:05;;;;;;;4.50;1.13;;;;;;;;;;4934440;29;20035;-57
2021/04/13 10:43:54;;;;;;;3.83;0.97;;;;;;;;;;4934181;28;20125;-55
2021/04/13 10:46:32;;;;;;;2.17;1.30;;;;;;;;;;4934696;29;20032;-55
2021/04/13 10:49:10;;;;;;;4.30;1.13;;;;;;;;;;4934553;29;20043;-57
2021/04/13 10:51:50;;;;;;;4.83;1.40;;;;;;;;;;4934584;29;20099;-58
2021/04/13 10:54:34;;;;;;;2.67;0.90;;;;;;;;;;4934398;29;20079;-57
2021/04/13 10:57:11;;;;;;;5.93;1.27;;;;;;;;;;4934067;29;20058;-57
2021/04/13 10:59:43;;;;;;;7.10;1.20;;;;;;;;;;4933719;29;20092;-56
2021/04/13 11:02:11;;;;;;;3.28;1.08;;;;;;;;;;4934586;28;20494;-57
2021/04/13 11:04:40;;;;;;;4.97;1.50;;;;;;;;;;4934545;29;20019;-57
2021/04/13 11:07:14;;;;;;;5.17;1.20;;;;;;;;;;4964885;28;20038;-57
2021/04/13 11:09:55;;;;;;;3.83;1.10;;;;;;;;;;4964348;28;20055;-57
2021/04/13 11:12:23;;;;;;;4.57;1.20;;;;;;;;;;4917962;29;20032;-56
2021/04/13 11:14:48;;;;;;;3.23;1.03;;;;;;;;;;4942931;29;20036;-57
2021/04/13 11:17:14;;;;;;;3.20;0.93;;;;;;;;;;4950777;29;20039;-57
2021/04/13 11:19:39;;;;;;;;;;;;;;;;;;4951440;29;20039;-58
2021/04/13 11:22:23;;;;;;;4.07;1.40;;;;;;;;;;4938780;29;19915;-57
2021/04/13 11:25:07;;;;;;;3.40;1.30;;;;;;;;;;4934433;29;20036;-54
2021/04/13 11:27:35;;;;;;;4.77;0.90;;;;;;;;;;4934123;29;20032;-56
2021/04/13 11:30:01;;;;;;;6.30;0.90;;;;;;;;;;4948757;29;20115;-56
2021/04/13 11:32:34;;;;;;;2.10;0.80;;;;;;;;;;4952175;29;20087;-58
2021/04/13 11:35:03;;;;;;;2.87;1.17;;;;;;;;;;4944141;29;20035;-56
2021/04/13 11:37:31;;;;;;;4.60;1.07;;;;;;;;;;4938278;29;20058;-57
2021/04/13 11:40:09;;;;;;;2.37;0.80;;;;;;;;;;4937716;29;20035;-56
2021/04/13 11:42:38;;;;;;;4.20;1.20;;;;;;;;;;4937474;29;20031;-57
2021/04/13 11:45:13;;;;;;;4.70;1.60;;;;;;;;;;4938112;29;20034;-57
2021/04/13 11:47:59;;;;;;;3.23;0.93;;;;;;;;;;4937058;29;20071;-57
2021/04/13 11:50:39;;;;;;;1.77;0.70;;;;;;;;;;4926658;29;20514;-55
2021/04/13 11:53:07;;;;;;;3.17;0.90;;;;;;;;;;4937460;29;20032;-56
2021/04/13 11:55:47;;;;;;;3.20;0.90;;;;;;;;;;4936992;29;20070;-56
2021/04/13 11:58:16;;;;;;;5.40;1.10;;;;;;;;;;4937036;29;20095;-55
2021/04/13 12:00:45;;;;;;;8.43;1.77;;;;;;;;;;4936294;29;20451;-56
2021/04/13 12:03:17;;;;;;;2.53;0.97;;;;;;;;;;4937373;29;20038;-56
2021/04/13 12:05:49;;;;;;;2.43;0.70;;;;;;;;;;4936488;29;20039;-56
2021/04/13 12:08:29;;;;;;;3.03;0.93;;;;;;;;;;4937889;29;20123;-57
2021/04/13 12:10:55;;;;;;;4.80;1.20;;;;;;;;;;4937115;29;20032;-56
2021/04/13 12:13:40;;;;;;;7.03;0.95;;;;;;;;;;4937278;29;20543;-56
2021/04/13 12:16:07;;;;;;;2.60;0.87;;;;;;;;;;4937117;29;20028;-57
2021/04/13 12:18:35;;;;;;;4.37;2.37;;;;;;;;;;4936938;29;20393;-56
2021/04/13 12:21:19;;;;;;;2.53;1.27;;;;;;;;;;4936880;29;20111;-56
2021/04/13 12:23:47;;;;;;;8.60;1.33;;;;;;;;;;4935307;29;20036;-56
2021/04/13 12:26:27;;;;;;;2.37;0.80;;;;;;;;;;4936525;29;20079;-57
2021/04/13 12:28:52;;;;;;;3.23;0.80;;;;;;;;;;4956079;28;20738;-56
2021/04/13 12:31:28;;;;;;;4.77;1.10;;;;;;;;;;4935124;29;20278;-57
2021/04/13 12:33:53;;;;;;;4.63;1.50;;;;;;;;;;4916299;29;20024;-56
2021/04/13 12:36:37;;;;;;;3.60;1.30;;;;;;;;;;4917925;29;20031;-55
2021/04/13 12:39:04;;;;;;;4.80;1.30;;;;;;;;;;4917276;29;20080;-56
2021/04/13 12:41:31;;;;;;;5.30;2.27;;;;;;;;;;4917331;29;20119;-58
2021/04/13 12:43:57;;;;;;;4.07;1.43;;;;;;;;;;4916615;29;20447;-57
2021/04/13 12:46:22;;;;;;;;;;;;;;;;;;4918033;29;20063;-57
2021/04/13 12:48:48;;;;;;;3.37;1.20;;;;;;;;;;4917410;29;20263;-56
2021/04/13 12:51:16;;;;;;;3.95;1.40;;;;;;;;;;4917535;29;20047;-57
2021/04/13 12:53:42;;;;;;;3.80;1.33;;;;;;;;;;4916766;29;20318;-55
2021/04/13 12:56:07;;;;;;;;;;;;;;;;;;4920526;29;20152;-56
2021/04/13 12:58:34;;;;;;;2.83;0.97;;;;;;;;;;4935847;29;20319;-55
2021/04/13 13:01:00;;;;;;;3.47;0.97;;;;;;;;;;4936348;29;20058;-57
2021/04/13 13:03:31;;;;;;;3.30;0.70;;;;;;;;;;4935984;29;20040;-57
2021/04/13 13:05:57;;;;;;;2.17;0.80;;;;;;;;;;4935970;29;20036;-55
2021/04/13 13:08:29;;;;;;;2.40;0.95;;;;;;;;;;4934934;29;20039;-56
2021/04/13 13:10:56;;;;;;;5.00;1.20;;;;;;;;;;4935615;29;20031;-56
2021/04/13 13:13:35;;;;;;;3.17;1.10;;;;;;;;;;4935133;29;20126;-56
2021/04/13 13:16:10;;;;;;;5.50;1.20;;;;;;;;;;4935569;29;20038;-56
2021/04/13 13:18:37;;;;;;;2.47;0.60;;;;;;;;;;4935655;29;20479;-57
2021/04/13 13:21:02;;;;;;;3.27;1.17;;;;;;;;;;4935487;28;20054;-55
2021/04/13 13:23:37;;;;;;;6.63;1.00;;;;;;;;;;4935398;28;20028;-56
2021/04/13 13:26:13;;;;;;;6.40;1.50;;;;;;;;;;4933068;29;20296;-56
2021/04/13 13:28:44;;;;;;;6.77;1.10;;;;;;;;;;4932867;29;20047;-56
2021/04/13 13:31:14;;;;;;;4.37;1.10;;;;;;;;;;4935285;29;20039;-55
2021/04/13 13:33:40;;;;;;;2.17;0.90;;;;;;;;;;4934939;28;20024;-56
2021/04/13 13:36:06;;;;;;;2.95;0.88;;;;;;;;;;4932884;29;20026;-56
2021/04/13 13:38:33;;;;;;;0.73;0.68;;;;;;;;;;4935219;29;20564;-56
2021/04/13 13:41:02;;;;;;;3.13;1.43;;;;;;;;;;4934944;29;20040;-57
2021/04/13 13:43:28;;;;;;;5.53;0.90;;;;;;;;;;4933886;29;20055;-57
2021/04/13 13:45:53;;;;;;;;;;;;;;;;;;4934552;29;20074;-55
2021/04/13 13:48:21;;;;;;;4.40;1.60;;;;;;;;;;4935818;29;20271;-54
2021/04/13 13:50:47;;;;;;;3.80;0.93;;;;;;;;;;4935118;29;20090;-55
2021/04/13 13:53:16;;;;;;;3.08;1.30;;;;;;;;;;4934595;29;20016;-54
2021/04/13 13:55:41;;;;;;;4.20;1.00;;;;;;;;;;4933483;29;20416;-55
2021/04/13 13:58:10;;;;;;;8.05;1.38;;;;;;;;;;4934585;29;20028;-56
2021/04/13 14:00:35;;;;;;;4.07;1.00;;;;;;;;;;4932080;29;20059;-53
2021/04/13 14:03:08;;;;;;;1.75;1.08;;;;;;;;;;4934464;29;20472;-56
2021/04/13 14:05:37;;;;;;;4.20;0.90;;;;;;;;;;4934943;29;20040;-56
2021/04/13 14:08:06;;;;;;;3.50;1.37;;;;;;;;;;4934625;29;20043;-55
2021/04/13 14:10:36;;;;;;;2.80;0.87;;;;;;;;;;4934923;29;20480;-56
2021/04/13 14:13:11;;;;;;;2.37;0.90;;;;;;;;;;4934727;29;20039;-56
2021/04/13 14:15:38;;;;;;;1.43;0.70;;;;;;;;;;4935344;29;20103;-56
2021/04/13 14:18:03;;;;;;;1.90;0.80;;;;;;;;;;4934582;29;20026;-56
2021/04/13 14:20:28;;;;;;;3.70;1.33;;;;;;;;;;4934490;29;20047;-56
2021/04/13 14:23:08;;;;;;;2.20;0.97;;;;;;;;;;4934432;29;20262;-57
2021/04/13 14:25:34;;;;;;;6.13;1.80;;;;;;;;;;4934279;29;20265;-56
2021/04/13 14:28:20;;;;;;;2.87;1.50;;;;;;;;;;4932975;29;20395;-56
2021/04/13 14:30:46;;;;;;;4.43;1.67;;;;;;;;;;4932273;29;20030;-56
2021/04/13 14:33:12;;;;;;;3.38;1.60;;;;;;;;;;4934526;29;20036;-56
2021/04/13 14:35:38;;;;;;;3.15;1.00;;;;;;;;;;4933259;29;20036;-56
2021/04/13 14:38:08;;;;;;;2.83;0.90;;;;;;;;;;4934312;29;20365;-54
2021/04/13 14:40:33;;;;;;;5.30;1.53;;;;;;;;;;4935065;29;20043;-55
2021/04/13 14:43:00;;;;;;;4.47;1.48;;;;;;;;;;4934730;29;20483;-56
2021/04/13 14:45:27;;;;;;;5.57;1.30;;;;;;;;;;4935350;28;20039;-56
2021/04/13 14:47:53;;;;;;;6.13;1.70;;;;;;;;;;4935081;29;20384;-53
2021/04/13 14:50:24;;;;;;;7.43;1.53;;;;;;;;;;4934795;29;20031;-54
2021/04/13 14:52:50;;;;;;;2.77;1.30;;;;;;;;;;4934483;28;20032;-54
2021/04/13 14:55:17;;;;;;;2.13;1.15;;;;;;;;;;4933673;29;20372;-55
2021/04/13 14:57:42;;;;;;;7.77;1.87;;;;;;;;;;4934075;29;20086;-55
2021/04/13 15:00:09;;;;;;;3.77;1.17;;;;;;;;;;4934451;29;20325;-56
2021/04/13 15:02:34;;;;;;;3.67;1.17;;;;;;;;;;4933125;29;20102;-58
2021/04/13 15:05:00;;;;;;;4.47;1.15;;;;;;;;;;4936130;29;20274;-56